createdAt,value
2023-07-19T00:00:35.120Z,22.31
2023-07-19T00:06:07.004Z,22.31
2023-07-19T00:11:38.776Z,22.22
2023-07-19T00:17:10.058Z,22.3
2023-07-19T00:22:41.798Z,22.35
2023-07-19T00:28:13.801Z,22.32
2023-07-19T00:33:45.297Z,22.3
2023-07-19T00:39:17.265Z,22.17
2023-07-19T00:50:24.845Z,22.1
2023-07-19T00:55:56.594Z,21.96
2023-07-19T01:01:28.294Z,22.09
2023-07-19T01:07:00.238Z,22.05
2023-07-19T01:12:32.360Z,21.94
2023-07-19T01:18:03.480Z,21.91
2023-07-19T01:23:35.394Z,21.92
2023-07-19T01:29:07.134Z,21.89
2023-07-19T01:34:38.749Z,21.73
2023-07-19T01:40:10.472Z,21.69
2023-07-19T01:45:46.563Z,21.61
2023-07-19T01:51:19.163Z,21.62
2023-07-19T01:56:50.091Z,21.48
2023-07-19T02:02:22.022Z,21.48
2023-07-19T02:07:53.626Z,21.39
2023-07-19T02:13:25.510Z,21.31
2023-07-19T02:18:57.058Z,21.22
2023-07-19T02:24:28.770Z,21.18
2023-07-19T02:30:00.763Z,21.1
2023-07-19T02:35:32.017Z,21.08
2023-07-19T02:41:04.135Z,21.06
2023-07-19T02:46:39.904Z,21.06
2023-07-19T02:52:11.627Z,21.03
2023-07-19T02:57:43.364Z,20.92
2023-07-19T03:03:15.119Z,20.9
2023-07-19T03:08:46.958Z,20.85
2023-07-19T03:14:18.929Z,20.87
2023-07-19T03:19:50.461Z,20.93
2023-07-19T03:25:22.221Z,20.92
2023-07-19T03:30:54.401Z,20.95
2023-07-19T03:36:25.421Z,20.94
2023-07-19T03:41:57.649Z,20.95
2023-07-19T03:47:33.219Z,20.84
2023-07-19T03:53:05.146Z,20.8
2023-07-19T03:58:36.767Z,20.86
2023-07-19T04:04:09.084Z,20.68
2023-07-19T04:09:40.140Z,20.66
2023-07-19T04:15:12.082Z,20.52
2023-07-19T04:20:43.766Z,20.59
2023-07-19T04:26:15.874Z,20.6
2023-07-19T04:31:47.387Z,20.62
2023-07-19T04:37:18.749Z,20.62
2023-07-19T04:42:50.736Z,20.67
2023-07-19T04:48:27.652Z,20.68
2023-07-19T04:53:58.481Z,20.74
2023-07-19T04:59:30.176Z,20.75
2023-07-19T05:05:02.831Z,20.94
2023-07-19T05:10:33.435Z,20.88
2023-07-19T05:16:05.304Z,20.94
2023-07-19T05:21:36.896Z,20.99
2023-07-19T05:27:09.024Z,21.02
2023-07-19T05:32:40.363Z,21.15
2023-07-19T05:38:12.036Z,21.22
2023-07-19T05:43:43.904Z,21.41
2023-07-19T05:49:34.974Z,21.59
2023-07-19T05:55:06.857Z,21.75
2023-07-19T06:00:38.540Z,21.7
2023-07-19T06:06:10.141Z,21.83
2023-07-19T06:11:41.866Z,22.08
2023-07-19T06:17:13.768Z,22.24
2023-07-19T06:22:45.536Z,22.48
2023-07-19T06:28:17.267Z,22.88
2023-07-19T06:33:48.976Z,23.02
2023-07-19T06:39:20.917Z,23.26
2023-07-19T06:44:52.549Z,23.47
2023-07-19T06:50:28.287Z,23.77
2023-07-19T06:56:00.225Z,24.05
2023-07-19T07:01:31.992Z,24.4
2023-07-19T07:07:03.726Z,24.71
2023-07-19T07:12:35.439Z,24.99
2023-07-19T07:18:07.340Z,25.15
2023-07-19T07:23:38.645Z,25.28
2023-07-19T07:29:10.313Z,25.33
2023-07-19T07:34:42.027Z,25.48
2023-07-19T07:40:14.004Z,25.7
2023-07-19T07:45:45.727Z,25.91
2023-07-19T07:51:22.138Z,26.1
2023-07-19T07:56:53.425Z,26.28
2023-07-19T08:02:25.131Z,26.43
2023-07-19T08:07:56.998Z,26.65
2023-07-19T08:13:28.535Z,26.79
2023-07-19T08:19:00.574Z,27.02
2023-07-19T08:24:32.082Z,27.39
2023-07-19T08:30:03.677Z,27.15
2023-07-19T08:35:35.417Z,27.36
2023-07-19T08:41:07.227Z,27.48
2023-07-19T08:46:39.014Z,27.72
2023-07-19T08:52:14.965Z,27.72
2023-07-19T08:57:46.690Z,28.21
2023-07-19T09:03:18.423Z,28.23
2023-07-19T09:08:50.693Z,28.08
2023-07-19T09:14:21.924Z,28.11
2023-07-19T09:19:53.545Z,28.09
2023-07-19T09:25:25.234Z,28.19
2023-07-19T09:30:57.227Z,28.48
2023-07-19T09:36:29.244Z,28.58
2023-07-19T09:42:00.566Z,29.1
2023-07-19T09:47:32.151Z,28.78
2023-07-19T09:53:08.433Z,28.75
2023-07-19T09:58:40.128Z,28.93
2023-07-19T10:04:11.832Z,29.24
2023-07-19T10:09:43.578Z,29.39
2023-07-19T10:15:15.141Z,29.54
2023-07-19T10:20:47.073Z,29.63
2023-07-19T10:26:18.845Z,29.81
2023-07-19T10:31:50.289Z,29.97
2023-07-19T10:37:22.227Z,29.75
2023-07-19T10:42:53.800Z,30.15
2023-07-19T10:48:25.501Z,29.97
2023-07-19T10:54:03.557Z,29.74
2023-07-19T10:59:35.402Z,29.88
2023-07-19T11:05:07.133Z,29.58
2023-07-19T11:10:38.869Z,30.06
2023-07-19T11:16:10.646Z,30.18
2023-07-19T11:21:42.362Z,30.63
2023-07-19T11:27:14.680Z,30.71
2023-07-19T11:32:45.916Z,30.41
2023-07-19T11:38:17.600Z,29.9
2023-07-19T11:43:49.193Z,30.0
2023-07-19T11:49:20.836Z,30.01
2023-07-19T11:54:56.882Z,29.89
2023-07-19T12:00:28.804Z,30.42
2023-07-19T12:06:00.408Z,30.73
2023-07-19T12:11:32.044Z,30.54
2023-07-19T12:17:03.839Z,30.93
2023-07-19T12:22:35.709Z,31.23
2023-07-19T12:28:07.189Z,31.36
2023-07-19T12:33:38.913Z,31.23
2023-07-19T12:39:10.937Z,31.23
2023-07-19T12:44:42.663Z,30.69
2023-07-19T12:50:14.308Z,31.07
2023-07-19T12:55:50.383Z,30.97
2023-07-19T13:01:22.215Z,31.39
2023-07-19T13:06:53.624Z,31.4
2023-07-19T13:12:25.353Z,31.74
2023-07-19T13:17:57.271Z,31.55
2023-07-19T13:23:28.898Z,31.94
2023-07-19T13:29:01.226Z,31.69
2023-07-19T13:34:32.172Z,31.33
2023-07-19T13:40:04.125Z,30.64
2023-07-19T13:45:35.707Z,30.39
2023-07-19T13:51:07.640Z,30.3
2023-07-19T13:56:43.854Z,30.17
2023-07-19T14:02:15.920Z,30.0
2023-07-19T14:07:47.104Z,30.33
2023-07-19T14:18:50.397Z,30.4
2023-07-19T14:24:22.351Z,30.3
2023-07-19T14:29:54.001Z,29.92
2023-07-19T14:35:25.572Z,29.84
2023-07-19T14:40:57.562Z,29.75
2023-07-19T14:46:29.352Z,29.87
2023-07-19T14:52:00.918Z,29.28
2023-07-19T14:57:36.936Z,29.5
2023-07-19T15:03:08.881Z,29.59
2023-07-19T15:08:40.926Z,29.2
2023-07-19T15:14:12.091Z,29.37
2023-07-19T15:19:43.909Z,29.99
2023-07-19T15:25:15.447Z,29.51
2023-07-19T15:30:47.700Z,29.81
2023-07-19T15:36:19.224Z,29.84
2023-07-19T15:41:50.610Z,30.12
2023-07-19T15:47:22.353Z,29.88
2023-07-19T15:52:53.965Z,29.74
2023-07-19T15:58:30.135Z,29.54
2023-07-19T16:04:01.868Z,29.5
2023-07-19T16:09:33.709Z,29.74
2023-07-19T16:15:05.509Z,29.48
2023-07-19T16:20:37.121Z,29.3
2023-07-19T16:26:08.922Z,29.18
2023-07-19T16:31:40.963Z,28.8
2023-07-19T16:37:12.237Z,29.03
2023-07-19T16:42:44.173Z,28.69
2023-07-19T16:48:15.684Z,28.6
2023-07-19T16:53:47.420Z,28.48
2023-07-19T16:59:25.442Z,28.34
2023-07-19T17:04:57.905Z,28.32
2023-07-19T17:10:29.183Z,28.42
2023-07-19T17:16:00.622Z,28.13
2023-07-19T17:21:32.334Z,28.15
2023-07-19T17:27:04.303Z,28.18
2023-07-19T17:32:36.151Z,27.87
2023-07-19T17:38:07.565Z,27.76
2023-07-19T17:43:39.567Z,27.85
2023-07-19T17:49:11.258Z,27.94
2023-07-19T17:54:42.882Z,28.08
2023-07-19T18:00:18.822Z,27.51
2023-07-19T18:05:50.524Z,27.44
2023-07-19T18:11:22.610Z,27.36
2023-07-19T18:16:54.228Z,27.21
2023-07-19T18:22:25.759Z,27.11
2023-07-19T18:27:57.404Z,27.04
2023-07-19T18:33:29.370Z,26.97
2023-07-19T18:39:01.037Z,26.84
2023-07-19T18:44:33.102Z,26.87
2023-07-19T18:50:04.334Z,26.81
2023-07-19T18:55:36.371Z,26.29
2023-07-19T19:01:12.153Z,26.25
2023-07-19T19:06:44.151Z,26.27
2023-07-19T19:12:15.577Z,26.31
2023-07-19T19:17:47.615Z,26.27
2023-07-19T19:23:19.213Z,25.92
2023-07-19T19:28:50.761Z,25.9
2023-07-19T19:34:22.487Z,25.69
2023-07-19T19:39:54.425Z,25.53
2023-07-19T19:45:26.678Z,25.74
2023-07-19T19:50:57.713Z,25.48
2023-07-19T19:56:31.718Z,25.51
2023-07-19T20:07:39.216Z,25.56
2023-07-19T20:13:11.710Z,25.31
2023-07-19T20:24:14.453Z,25.13
2023-07-19T20:36:04.681Z,24.88
2023-07-19T20:46:21.305Z,24.49
2023-07-19T20:51:53.589Z,24.44
2023-07-19T20:57:24.706Z,24.28
2023-07-19T21:03:01.079Z,24.4
2023-07-19T21:08:32.598Z,24.42
2023-07-19T21:14:04.267Z,24.08
2023-07-19T21:19:36.178Z,24.06
2023-07-19T21:25:15.404Z,23.98
2023-07-19T21:30:39.613Z,24.09
2023-07-19T21:36:11.164Z,23.96
2023-07-19T21:41:43.166Z,23.67
2023-07-19T21:47:14.602Z,23.72
2023-07-19T21:52:46.311Z,23.86
2023-07-19T21:58:18.221Z,23.7
2023-07-19T22:03:54.247Z,23.41
2023-07-19T22:09:25.888Z,23.15
2023-07-19T22:15:07.196Z,23.03
2023-07-19T22:20:29.552Z,23.18
2023-07-19T22:26:01.011Z,23.14
2023-07-19T22:31:32.791Z,22.91
2023-07-19T22:37:05.029Z,22.88
2023-07-19T22:42:36.386Z,22.74
2023-07-19T22:48:08.148Z,22.78
2023-07-19T22:53:39.642Z,22.81
2023-07-19T22:59:11.384Z,22.88
2023-07-19T23:04:49.449Z,22.98
2023-07-19T23:10:21.200Z,22.65
2023-07-19T23:15:53.112Z,22.36
2023-07-19T23:21:24.650Z,22.38
2023-07-19T23:26:56.358Z,22.47
2023-07-19T23:32:28.406Z,22.61
2023-07-19T23:37:59.787Z,22.59
2023-07-19T23:43:31.577Z,22.45
2023-07-19T23:49:04.109Z,22.33
2023-07-19T23:54:35.248Z,22.32
